Rockhampton Airport
YBRK : now visible

Airfield :











YOU CAN JOIN US ON...

 
LOGIN :

Register | Disclaimer

   EN    FR    IT 

 









Legend :    VFR   Marginal VFR   IFR   Intensive IFR   Very Intensive IFR
Visi :
Ceiling :
>= 8 km
>= 3000ft
5 to 8 km
1000 to 3000 ft
1500m to 5 km
500 to 1000 ft
800 to 1500m
200 to 500 ft
< 800m
< 200 ft
Symbols :   Thunderstorms  Fog  Heavy snow  Heavy precipitations  Wind > 20 kt






- Airport Elevation : 34 ft
- IATA code : ROK


YBRK - Rockhampton

CURRENT METAR :
  • 280100Z 10010KT 9999 -SHRA FEW016 BKN030 BKN150 31/23 Q1011

EXPIRED METARs :
  • 280030Z 11012KT 9999 -SHRA FEW019 BKN028 30/22 Q1011 RF00.0/000.0
  • 280000Z 10012KT 9999 -SHRA FEW015 SCT026 BKN110 29/23 Q1011
  • 272330Z 09011KT 9999 FEW015 SCT024 BKN110 29/22 Q1011 RF00.0/000.0
  • 272300Z 10011KT 9999 FEW015 SCT025 BKN170 28/23 Q1011
  • 272230Z 12009KT 9999 FEW014 BKN170 27/22 Q1011 RF00.0/000.0

TAF TAF YBRK
Valid from the 28 at 00:00 until the 29 at 00:00 UTC


272325Z 2800/2900 08014KT 9999 -SHRA SCT025 SCT040
FM281000 13008KT 9999 -SHRA SCT018 SCT035
FM282300 10014KT 9999 -SHRA SCT020 SCT040 INTER 2800/2823 4000 SHRA BKN012



MET'MAP, your aeronautical weather chart ! - Copyright ORBIFLY December 2007 - Disclaimer

ORBIFLY MET'MAP TEAM :

Programming & Development : Alexandra Zaïnal
Concept & original design : Baudouin d'Aumeries
Assistance for programming : Marc-Olivier Méhu
Technical & hardware support : Manuel Goepfert

Contact : metmap@orbifly.com




SOURCES & CREDITS :

   NOAA       Earth
Advisory